Main page
METAR-TAF:

METAR-TAF

Airports :

Győr-Pér International Airport

Győr, Hungary

latitude: 47-37-28N, longitude: 017-48-49E, elevation: 129 m

Current weather observation

The report was made 37 minutes ago, at 06:45 UTC
Wind 4 kt from the West/Southwest
Temperature -2°C
Humidity 93%
Pressure 1019 hPa
Visibility 10 km or more
Overcast at a height of 3000 ft

METAR: LHPR 160645Z 25004KT 9999 OVC030 M02/M03 Q1019 RMK BLU

Time: 08:22 (07:22 UTC)

Forecast

The report was made 2 hours and 7 minutes ago, at 05:15 UTC
Forecast valid from 16 at 06 UTC to 16 at 15 UTC
Wind 5 kt from the West/Southwest
Visibility 10 km or more
Broken clouds at a height of 3500 ft
Becoming
from 16 at 06 UTC to 16 at 09 UTC
Scattered clouds at a height of 2000 ft
Becoming
from 16 at 12 UTC to 16 at 15 UTC
Wind 8 kt from the Southeast

TAF: LHPR 160515Z 1606/1615 25005KT 9999 BKN035 BECMG 1606/1609 SCT020 BECMG 1612/1615 13008KT

Weather observations and forecasts of more than 4000 airports (METAR and TAF reports).

The available stations are represented by yellow and red dots on the map.

Hover mouse over dot to see the name of the station.

Then click to see weather observations and forecasts.

To change the map : click on the green buttons with a black cross to zoom in, on the green button with a dash to zoom out, or on the green arrows for adjacent maps.


METAR-TAF: